sensor_id;sensor_type;location;lat;lon;timestamp;P1;durP1;ratioP1;P2;durP2;ratioP2
67528;SDS011;54366;51.980;5.856;2022-12-24T00:02:07;22.80;;;4.82;;
67528;SDS011;54366;51.980;5.856;2022-12-24T00:04:40;25.13;;;5.45;;
67528;SDS011;54366;51.980;5.856;2022-12-24T00:07:13;22.20;;;5.28;;
67528;SDS011;54366;51.980;5.856;2022-12-24T00:09:46;22.17;;;4.80;;
67528;SDS011;54366;51.980;5.856;2022-12-24T00:12:26;26.23;;;5.07;;
67528;SDS011;54366;51.980;5.856;2022-12-24T00:14:58;28.40;;;5.68;;
67528;SDS011;54366;51.980;5.856;2022-12-24T00:17:25;24.92;;;5.63;;
67528;SDS011;54366;51.980;5.856;2022-12-24T00:19:57;20.20;;;4.63;;
67528;SDS011;54366;51.980;5.856;2022-12-24T00:22:30;23.80;;;4.90;;
67528;SDS011;54366;51.980;5.856;2022-12-24T00:24:57;31.38;;;5.88;;
67528;SDS011;54366;51.980;5.856;2022-12-24T00:27:29;21.13;;;4.82;;
67528;SDS011;54366;51.980;5.856;2022-12-24T00:29:56;27.38;;;6.13;;
67528;SDS011;54366;51.980;5.856;2022-12-24T00:32:28;26.20;;;5.65;;
67528;SDS011;54366;51.980;5.856;2022-12-24T00:35:01;24.75;;;5.07;;
67528;SDS011;54366;51.980;5.856;2022-12-24T00:37:34;22.83;;;5.38;;
67528;SDS011;54366;51.980;5.856;2022-12-24T00:40:08;23.35;;;5.35;;
67528;SDS011;54366;51.980;5.856;2022-12-24T00:42:40;23.08;;;5.18;;
67528;SDS011;54366;51.980;5.856;2022-12-24T00:45:07;27.17;;;5.63;;
67528;SDS011;54366;51.980;5.856;2022-12-24T00:47:40;14.80;;;4.05;;
67528;SDS011;54366;51.980;5.856;2022-12-24T00:50:13;25.88;;;5.13;;
67528;SDS011;54366;51.980;5.856;2022-12-24T00:52:46;21.13;;;4.40;;
67528;SDS011;54366;51.980;5.856;2022-12-24T00:55:19;21.90;;;5.10;;
67528;SDS011;54366;51.980;5.856;2022-12-24T00:57:46;25.00;;;4.97;;
67528;SDS011;54366;51.980;5.856;2022-12-24T01:00:19;18.85;;;4.35;;
67528;SDS011;54366;51.980;5.856;2022-12-24T01:02:51;21.38;;;4.60;;
67528;SDS011;54366;51.980;5.856;2022-12-24T01:05:25;24.52;;;5.53;;
67528;SDS011;54366;51.980;5.856;2022-12-24T01:07:51;25.20;;;5.95;;
67528;SDS011;54366;51.980;5.856;2022-12-24T01:10:24;18.55;;;4.85;;
67528;SDS011;54366;51.980;5.856;2022-12-24T01:15:35;21.95;;;4.82;;
67528;SDS011;54366;51.980;5.856;2022-12-24T01:18:08;20.40;;;5.00;;
67528;SDS011;54366;51.980;5.856;2022-12-24T01:20:41;23.73;;;4.97;;
67528;SDS011;54366;51.980;5.856;2022-12-24T01:23:14;20.13;;;4.63;;
67528;SDS011;54366;51.980;5.856;2022-12-24T01:25:47;23.05;;;5.05;;
67528;SDS011;54366;51.980;5.856;2022-12-24T01:28:14;22.25;;;5.40;;
67528;SDS011;54366;51.980;5.856;2022-12-24T01:30:47;27.10;;;5.78;;
67528;SDS011;54366;51.980;5.856;2022-12-24T01:33:19;18.42;;;4.53;;
67528;SDS011;54366;51.980;5.856;2022-12-24T01:35:46;24.25;;;5.45;;
67528;SDS011;54366;51.980;5.856;2022-12-24T01:38:18;19.90;;;5.07;;
67528;SDS011;54366;51.980;5.856;2022-12-24T01:40:51;20.02;;;4.45;;
67528;SDS011;54366;51.980;5.856;2022-12-24T01:43:42;17.40;;;4.25;;
67528;SDS011;54366;51.980;5.856;2022-12-24T01:46:19;21.30;;;4.95;;
67528;SDS011;54366;51.980;5.856;2022-12-24T01:48:59;23.15;;;5.10;;
67528;SDS011;54366;51.980;5.856;2022-12-24T01:51:38;19.00;;;4.32;;
67528;SDS011;54366;51.980;5.856;2022-12-24T01:54:20;19.42;;;4.55;;
67528;SDS011;54366;51.980;5.856;2022-12-24T01:57:05;28.52;;;5.80;;
67528;SDS011;54366;51.980;5.856;2022-12-24T01:59:42;24.77;;;5.07;;
67528;SDS011;54366;51.980;5.856;2022-12-24T02:02:20;19.67;;;4.78;;
67528;SDS011;54366;51.980;5.856;2022-12-24T02:04:51;24.73;;;5.20;;
67528;SDS011;54366;51.980;5.856;2022-12-24T02:07:33;19.48;;;5.00;;
67528;SDS011;54366;51.980;5.856;2022-12-24T02:10:06;19.45;;;4.90;;
67528;SDS011;54366;51.980;5.856;2022-12-24T02:12:41;16.60;;;3.85;;
67528;SDS011;54366;51.980;5.856;2022-12-24T02:15:22;15.13;;;3.67;;
67528;SDS011;54366;51.980;5.856;2022-12-24T02:17:53;23.77;;;5.32;;
67528;SDS011;54366;51.980;5.856;2022-12-24T02:21:22;19.77;;;4.55;;
67528;SDS011;54366;51.980;5.856;2022-12-24T02:23:55;19.67;;;4.38;;
67528;SDS011;54366;51.980;5.856;2022-12-24T02:27:01;19.80;;;4.32;;
67528;SDS011;54366;51.980;5.856;2022-12-24T02:30:11;16.65;;;3.70;;
67528;SDS011;54366;51.980;5.856;2022-12-24T02:35:56;16.00;;;3.95;;
67528;SDS011;54366;51.980;5.856;2022-12-24T02:38:55;12.32;;;3.38;;
67528;SDS011;54366;51.980;5.856;2022-12-24T02:41:34;17.40;;;3.80;;
67528;SDS011;54366;51.980;5.856;2022-12-24T02:44:29;15.55;;;3.70;;
67528;SDS011;54366;51.980;5.856;2022-12-24T02:46:58;14.10;;;3.72;;
67528;SDS011;54366;51.980;5.856;2022-12-24T02:49:34;16.67;;;3.88;;
67528;SDS011;54366;51.980;5.856;2022-12-24T02:52:25;15.20;;;3.50;;
67528;SDS011;54366;51.980;5.856;2022-12-24T02:55:19;14.80;;;3.60;;
67528;SDS011;54366;51.980;5.856;2022-12-24T03:01:49;17.23;;;3.53;;
67528;SDS011;54366;51.980;5.856;2022-12-24T03:06:07;10.85;;;3.22;;
67528;SDS011;54366;51.980;5.856;2022-12-24T03:11:36;14.02;;;3.50;;
67528;SDS011;54366;51.980;5.856;2022-12-24T03:14:20;20.30;;;4.30;;
67528;SDS011;54366;51.980;5.856;2022-12-24T03:16:47;17.50;;;4.35;;
67528;SDS011;54366;51.980;5.856;2022-12-24T03:19:20;14.95;;;3.78;;
67528;SDS011;54366;51.980;5.856;2022-12-24T03:21:55;14.00;;;3.60;;
67528;SDS011;54366;51.980;5.856;2022-12-24T03:24:23;14.82;;;3.22;;
67528;SDS011;54366;51.980;5.856;2022-12-24T03:26:56;13.57;;;3.20;;
67528;SDS011;54366;51.980;5.856;2022-12-24T03:29:25;15.93;;;3.33;;
67528;SDS011;54366;51.980;5.856;2022-12-24T03:31:59;13.48;;;3.63;;
67528;SDS011;54366;51.980;5.856;2022-12-24T03:34:27;15.95;;;3.90;;
67528;SDS011;54366;51.980;5.856;2022-12-24T03:37:00;16.52;;;3.70;;
67528;SDS011;54366;51.980;5.856;2022-12-24T03:39:26;13.93;;;3.50;;
67528;SDS011;54366;51.980;5.856;2022-12-24T03:41:58;16.83;;;3.58;;
67528;SDS011;54366;51.980;5.856;2022-12-24T03:44:31;14.20;;;3.58;;
67528;SDS011;54366;51.980;5.856;2022-12-24T03:47:04;17.38;;;3.88;;
67528;SDS011;54366;51.980;5.856;2022-12-24T03:49:31;23.83;;;4.60;;
67528;SDS011;54366;51.980;5.856;2022-12-24T03:52:03;19.20;;;3.70;;
67528;SDS011;54366;51.980;5.856;2022-12-24T03:54:36;13.02;;;3.70;;
67528;SDS011;54366;51.980;5.856;2022-12-24T03:57:03;17.95;;;3.63;;
67528;SDS011;54366;51.980;5.856;2022-12-24T03:59:36;16.83;;;3.90;;
67528;SDS011;54366;51.980;5.856;2022-12-24T04:02:09;15.50;;;3.80;;
67528;SDS011;54366;51.980;5.856;2022-12-24T04:04:42;13.63;;;3.08;;
67528;SDS011;54366;51.980;5.856;2022-12-24T04:07:15;17.38;;;3.72;;
67528;SDS011;54366;51.980;5.856;2022-12-24T04:09:49;14.48;;;3.78;;
67528;SDS011;54366;51.980;5.856;2022-12-24T04:12:15;13.77;;;3.78;;
67528;SDS011;54366;51.980;5.856;2022-12-24T04:14:47;15.68;;;3.88;;
67528;SDS011;54366;51.980;5.856;2022-12-24T04:17:15;15.23;;;3.90;;
67528;SDS011;54366;51.980;5.856;2022-12-24T04:19:47;21.15;;;4.40;;
67528;SDS011;54366;51.980;5.856;2022-12-24T04:22:21;15.80;;;3.63;;
67528;SDS011;54366;51.980;5.856;2022-12-24T04:24:53;22.63;;;5.53;;
67528;SDS011;54366;51.980;5.856;2022-12-24T04:27:20;18.08;;;4.65;;
67528;SDS011;54366;51.980;5.856;2022-12-24T04:29:52;19.17;;;4.55;;
67528;SDS011;54366;51.980;5.856;2022-12-24T04:32:26;15.65;;;4.38;;
67528;SDS011;54366;51.980;5.856;2022-12-24T04:34:59;14.63;;;3.80;;
67528;SDS011;54366;51.980;5.856;2022-12-24T04:37:25;24.35;;;5.72;;
67528;SDS011;54366;51.980;5.856;2022-12-24T04:39:57;17.60;;;4.68;;
67528;SDS011;54366;51.980;5.856;2022-12-24T04:42:24;16.33;;;4.28;;
67528;SDS011;54366;51.980;5.856;2022-12-24T04:44:56;17.98;;;4.90;;
67528;SDS011;54366;51.980;5.856;2022-12-24T04:47:29;25.08;;;6.00;;
67528;SDS011;54366;51.980;5.856;2022-12-24T04:50:03;17.92;;;4.82;;
67528;SDS011;54366;51.980;5.856;2022-12-24T04:52:29;19.10;;;4.40;;
67528;SDS011;54366;51.980;5.856;2022-12-24T04:55:02;19.45;;;4.95;;
67528;SDS011;54366;51.980;5.856;2022-12-24T04:57:35;20.75;;;5.10;;
67528;SDS011;54366;51.980;5.856;2022-12-24T05:00:09;26.95;;;6.18;;
67528;SDS011;54366;51.980;5.856;2022-12-24T05:02:43;24.25;;;5.63;;
67528;SDS011;54366;51.980;5.856;2022-12-24T05:05:09;19.90;;;5.03;;
67528;SDS011;54366;51.980;5.856;2022-12-24T05:07:42;26.35;;;5.38;;
67528;SDS011;54366;51.980;5.856;2022-12-24T05:10:08;19.00;;;4.57;;
67528;SDS011;54366;51.980;5.856;2022-12-24T05:12:48;15.73;;;3.90;;
67528;SDS011;54366;51.980;5.856;2022-12-24T05:15:20;20.48;;;5.25;;
67528;SDS011;54366;51.980;5.856;2022-12-24T05:17:53;17.45;;;4.40;;
67528;SDS011;54366;51.980;5.856;2022-12-24T05:20:20;19.17;;;4.55;;
67528;SDS011;54366;51.980;5.856;2022-12-24T05:22:52;25.42;;;5.88;;
67528;SDS011;54366;51.980;5.856;2022-12-24T05:25:43;30.27;;;6.63;;
67528;SDS011;54366;51.980;5.856;2022-12-24T05:28:35;23.63;;;5.35;;
67528;SDS011;54366;51.980;5.856;2022-12-24T05:31:01;17.17;;;4.65;;
67528;SDS011;54366;51.980;5.856;2022-12-24T05:33:33;18.65;;;4.63;;
67528;SDS011;54366;51.980;5.856;2022-12-24T05:36:07;20.73;;;4.30;;
67528;SDS011;54366;51.980;5.856;2022-12-24T05:38:41;27.10;;;5.57;;
67528;SDS011;54366;51.980;5.856;2022-12-24T05:41:07;23.88;;;5.18;;
67528;SDS011;54366;51.980;5.856;2022-12-24T05:43:40;21.53;;;5.57;;
67528;SDS011;54366;51.980;5.856;2022-12-24T05:46:14;23.63;;;5.78;;
67528;SDS011;54366;51.980;5.856;2022-12-24T05:48:43;23.40;;;5.95;;
67528;SDS011;54366;51.980;5.856;2022-12-24T05:51:16;27.10;;;6.32;;
67528;SDS011;54366;51.980;5.856;2022-12-24T05:53:51;24.80;;;5.72;;
67528;SDS011;54366;51.980;5.856;2022-12-24T05:56:24;27.90;;;6.25;;
67528;SDS011;54366;51.980;5.856;2022-12-24T05:58:57;27.33;;;5.70;;
67528;SDS011;54366;51.980;5.856;2022-12-24T06:01:30;21.42;;;5.40;;
67528;SDS011;54366;51.980;5.856;2022-12-24T06:03:56;26.73;;;5.53;;
67528;SDS011;54366;51.980;5.856;2022-12-24T06:06:28;18.45;;;5.00;;
67528;SDS011;54366;51.980;5.856;2022-12-24T06:09:02;23.02;;;5.82;;
67528;SDS011;54366;51.980;5.856;2022-12-24T06:11:35;20.40;;;4.72;;
67528;SDS011;54366;51.980;5.856;2022-12-24T06:14:08;27.98;;;6.22;;
67528;SDS011;54366;51.980;5.856;2022-12-24T06:16:48;24.63;;;5.72;;
67528;SDS011;54366;51.980;5.856;2022-12-24T06:19:14;21.77;;;4.63;;
67528;SDS011;54366;51.980;5.856;2022-12-24T06:21:46;24.23;;;5.13;;
67528;SDS011;54366;51.980;5.856;2022-12-24T06:24:19;22.77;;;5.82;;
67528;SDS011;54366;51.980;5.856;2022-12-24T06:26:53;28.20;;;6.18;;
67528;SDS011;54366;51.980;5.856;2022-12-24T06:29:19;20.65;;;5.15;;
67528;SDS011;54366;51.980;5.856;2022-12-24T06:31:52;28.55;;;5.72;;
67528;SDS011;54366;51.980;5.856;2022-12-24T06:34:25;21.40;;;5.07;;
67528;SDS011;54366;51.980;5.856;2022-12-24T06:36:57;21.80;;;5.05;;
67528;SDS011;54366;51.980;5.856;2022-12-24T06:39:31;14.60;;;4.40;;
67528;SDS011;54366;51.980;5.856;2022-12-24T06:42:04;20.42;;;5.22;;
67528;SDS011;54366;51.980;5.856;2022-12-24T06:44:30;20.77;;;5.22;;
67528;SDS011;54366;51.980;5.856;2022-12-24T06:47:03;32.95;;;7.13;;
67528;SDS011;54366;51.980;5.856;2022-12-24T06:49:36;20.50;;;5.90;;
67528;SDS011;54366;51.980;5.856;2022-12-24T06:52:02;22.55;;;6.32;;
67528;SDS011;54366;51.980;5.856;2022-12-24T06:54:34;15.88;;;4.90;;
67528;SDS011;54366;51.980;5.856;2022-12-24T06:57:01;18.02;;;5.13;;
67528;SDS011;54366;51.980;5.856;2022-12-24T06:59:34;24.70;;;6.30;;
67528;SDS011;54366;51.980;5.856;2022-12-24T07:02:07;27.20;;;6.75;;
67528;SDS011;54366;51.980;5.856;2022-12-24T07:04:41;23.40;;;6.32;;
67528;SDS011;54366;51.980;5.856;2022-12-24T07:07:14;20.40;;;5.93;;
67528;SDS011;54366;51.980;5.856;2022-12-24T07:09:46;18.20;;;6.20;;
67528;SDS011;54366;51.980;5.856;2022-12-24T07:12:26;15.70;;;5.57;;
67528;SDS011;54366;51.980;5.856;2022-12-24T07:15:06;24.42;;;7.40;;
67528;SDS011;54366;51.980;5.856;2022-12-24T07:17:40;21.85;;;5.97;;
67528;SDS011;54366;51.980;5.856;2022-12-24T07:20:13;26.60;;;6.45;;
67528;SDS011;54366;51.980;5.856;2022-12-24T07:22:45;25.15;;;6.70;;
67528;SDS011;54366;51.980;5.856;2022-12-24T07:25:12;19.95;;;6.00;;
67528;SDS011;54366;51.980;5.856;2022-12-24T07:27:45;26.92;;;7.35;;
67528;SDS011;54366;51.980;5.856;2022-12-24T07:30:11;26.45;;;6.45;;
67528;SDS011;54366;51.980;5.856;2022-12-24T07:32:44;25.38;;;6.63;;
67528;SDS011;54366;51.980;5.856;2022-12-24T07:35:17;24.38;;;6.35;;
67528;SDS011;54366;51.980;5.856;2022-12-24T07:37:50;26.27;;;6.57;;
67528;SDS011;54366;51.980;5.856;2022-12-24T07:40:16;30.70;;;7.07;;
67528;SDS011;54366;51.980;5.856;2022-12-24T07:42:49;27.02;;;6.45;;
67528;SDS011;54366;51.980;5.856;2022-12-24T07:45:15;22.15;;;6.32;;
67528;SDS011;54366;51.980;5.856;2022-12-24T07:47:49;20.75;;;5.43;;
67528;SDS011;54366;51.980;5.856;2022-12-24T07:50:22;21.35;;;6.25;;
67528;SDS011;54366;51.980;5.856;2022-12-24T07:52:55;18.60;;;5.20;;
67528;SDS011;54366;51.980;5.856;2022-12-24T07:55:27;22.10;;;5.82;;
67528;SDS011;54366;51.980;5.856;2022-12-24T07:57:54;20.88;;;5.93;;
67528;SDS011;54366;51.980;5.856;2022-12-24T08:00:27;18.30;;;5.07;;
67528;SDS011;54366;51.980;5.856;2022-12-24T08:03:00;22.30;;;5.28;;
67528;SDS011;54366;51.980;5.856;2022-12-24T08:05:34;19.17;;;5.78;;
67528;SDS011;54366;51.980;5.856;2022-12-24T08:08:08;26.35;;;6.25;;
67528;SDS011;54366;51.980;5.856;2022-12-24T08:10:41;30.65;;;6.97;;
67528;SDS011;54366;51.980;5.856;2022-12-24T08:13:22;22.40;;;5.25;;
67528;SDS011;54366;51.980;5.856;2022-12-24T08:15:55;19.08;;;5.15;;
67528;SDS011;54366;51.980;5.856;2022-12-24T08:18:28;20.35;;;4.78;;
67528;SDS011;54366;51.980;5.856;2022-12-24T08:21:01;19.90;;;5.13;;
67528;SDS011;54366;51.980;5.856;2022-12-24T08:23:34;20.55;;;5.20;;
67528;SDS011;54366;51.980;5.856;2022-12-24T08:26:01;16.42;;;4.22;;
67528;SDS011;54366;51.980;5.856;2022-12-24T08:28:37;26.35;;;5.93;;
67528;SDS011;54366;51.980;5.856;2022-12-24T08:31:10;29.90;;;6.60;;
67528;SDS011;54366;51.980;5.856;2022-12-24T08:33:36;19.10;;;5.03;;
67528;SDS011;54366;51.980;5.856;2022-12-24T08:36:09;16.20;;;4.18;;
67528;SDS011;54366;51.980;5.856;2022-12-24T08:38:42;19.98;;;4.72;;
67528;SDS011;54366;51.980;5.856;2022-12-24T08:41:08;20.02;;;5.78;;
67528;SDS011;54366;51.980;5.856;2022-12-24T08:43:41;17.50;;;4.63;;
67528;SDS011;54366;51.980;5.856;2022-12-24T08:46:08;27.58;;;6.60;;
67528;SDS011;54366;51.980;5.856;2022-12-24T08:48:41;24.27;;;6.15;;
67528;SDS011;54366;51.980;5.856;2022-12-24T08:51:14;24.25;;;6.20;;
67528;SDS011;54366;51.980;5.856;2022-12-24T08:53:40;19.83;;;5.43;;
67528;SDS011;54366;51.980;5.856;2022-12-24T08:56:13;24.20;;;6.43;;
67528;SDS011;54366;51.980;5.856;2022-12-24T08:58:39;37.28;;;9.45;;
67528;SDS011;54366;51.980;5.856;2022-12-24T09:01:14;20.75;;;6.28;;
67528;SDS011;54366;51.980;5.856;2022-12-24T09:03:41;22.30;;;7.45;;
67528;SDS011;54366;51.980;5.856;2022-12-24T09:06:15;22.02;;;7.22;;
67528;SDS011;54366;51.980;5.856;2022-12-24T09:08:48;27.17;;;7.35;;
67528;SDS011;54366;51.980;5.856;2022-12-24T09:11:15;30.48;;;7.88;;
67528;SDS011;54366;51.980;5.856;2022-12-24T09:13:56;25.00;;;6.28;;
67528;SDS011;54366;51.980;5.856;2022-12-24T09:16:36;23.33;;;6.57;;
67528;SDS011;54366;51.980;5.856;2022-12-24T09:19:02;18.67;;;6.13;;
67528;SDS011;54366;51.980;5.856;2022-12-24T09:21:35;31.80;;;8.38;;
67528;SDS011;54366;51.980;5.856;2022-12-24T09:24:02;26.23;;;7.22;;
67528;SDS011;54366;51.980;5.856;2022-12-24T09:26:36;30.35;;;7.55;;
67528;SDS011;54366;51.980;5.856;2022-12-24T09:29:09;26.40;;;7.32;;
67528;SDS011;54366;51.980;5.856;2022-12-24T09:31:43;30.05;;;7.78;;
67528;SDS011;54366;51.980;5.856;2022-12-24T09:34:16;21.48;;;6.25;;
67528;SDS011;54366;51.980;5.856;2022-12-24T09:36:49;39.28;;;9.38;;
67528;SDS011;54366;51.980;5.856;2022-12-24T09:39:23;30.92;;;8.93;;
67528;SDS011;54366;51.980;5.856;2022-12-24T09:42:43;30.63;;;8.98;;
67528;SDS011;54366;51.980;5.856;2022-12-24T09:45:27;20.85;;;7.25;;
67528;SDS011;54366;51.980;5.856;2022-12-24T09:48:13;25.85;;;7.93;;
67528;SDS011;54366;51.980;5.856;2022-12-24T09:50:50;18.27;;;7.03;;
67528;SDS011;54366;51.980;5.856;2022-12-24T09:53:42;27.65;;;6.85;;
67528;SDS011;54366;51.980;5.856;2022-12-24T09:56:44;25.25;;;6.38;;
67528;SDS011;54366;51.980;5.856;2022-12-24T09:59:24;20.08;;;6.15;;
67528;SDS011;54366;51.980;5.856;2022-12-24T10:02:20;26.00;;;6.25;;
67528;SDS011;54366;51.980;5.856;2022-12-24T10:04:53;21.92;;;6.10;;
67528;SDS011;54366;51.980;5.856;2022-12-24T10:07:29;25.02;;;6.35;;
67528;SDS011;54366;51.980;5.856;2022-12-24T10:13:49;22.88;;;6.40;;
67528;SDS011;54366;51.980;5.856;2022-12-24T10:16:39;27.60;;;6.55;;
67528;SDS011;54366;51.980;5.856;2022-12-24T10:22:37;21.35;;;5.60;;
67528;SDS011;54366;51.980;5.856;2022-12-24T10:28:41;22.80;;;6.47;;
67528;SDS011;54366;51.980;5.856;2022-12-24T10:31:28;32.63;;;7.55;;
67528;SDS011;54366;51.980;5.856;2022-12-24T10:34:06;26.27;;;6.15;;
67528;SDS011;54366;51.980;5.856;2022-12-24T10:36:46;20.92;;;5.32;;
67528;SDS011;54366;51.980;5.856;2022-12-24T10:39:15;20.30;;;5.65;;
67528;SDS011;54366;51.980;5.856;2022-12-24T10:41:54;20.83;;;6.25;;
67528;SDS011;54366;51.980;5.856;2022-12-24T10:44:29;24.63;;;6.63;;
67528;SDS011;54366;51.980;5.856;2022-12-24T10:47:04;21.35;;;5.47;;
67528;SDS011;54366;51.980;5.856;2022-12-24T10:49:41;20.85;;;6.43;;
67528;SDS011;54366;51.980;5.856;2022-12-24T10:52:31;24.35;;;5.88;;
67528;SDS011;54366;51.980;5.856;2022-12-24T10:55:10;19.75;;;5.32;;
67528;SDS011;54366;51.980;5.856;2022-12-24T10:57:55;21.58;;;5.90;;
67528;SDS011;54366;51.980;5.856;2022-12-24T11:00:34;25.90;;;6.63;;
67528;SDS011;54366;51.980;5.856;2022-12-24T11:06:11;23.48;;;6.22;;
67528;SDS011;54366;51.980;5.856;2022-12-24T11:08:46;25.50;;;6.32;;
67528;SDS011;54366;51.980;5.856;2022-12-24T11:13:52;25.00;;;5.90;;
67528;SDS011;54366;51.980;5.856;2022-12-24T11:16:29;23.25;;;5.90;;
67528;SDS011;54366;51.980;5.856;2022-12-24T11:19:05;20.73;;;4.95;;
67528;SDS011;54366;51.980;5.856;2022-12-24T11:21:57;18.17;;;4.43;;
67528;SDS011;54366;51.980;5.856;2022-12-24T11:24:56;20.48;;;5.30;;
67528;SDS011;54366;51.980;5.856;2022-12-24T11:27:39;14.63;;;4.20;;
67528;SDS011;54366;51.980;5.856;2022-12-24T11:30:21;13.18;;;3.70;;
67528;SDS011;54366;51.980;5.856;2022-12-24T11:35:38;17.92;;;4.53;;
67528;SDS011;54366;51.980;5.856;2022-12-24T11:38:17;17.55;;;4.10;;
67528;SDS011;54366;51.980;5.856;2022-12-24T11:43:56;14.88;;;3.97;;
67528;SDS011;54366;51.980;5.856;2022-12-24T11:46:39;15.90;;;3.80;;
67528;SDS011;54366;51.980;5.856;2022-12-24T11:49:20;15.65;;;3.85;;
67528;SDS011;54366;51.980;5.856;2022-12-24T11:52:03;15.18;;;3.40;;
67528;SDS011;54366;51.980;5.856;2022-12-24T11:55:02;18.20;;;4.18;;
67528;SDS011;54366;51.980;5.856;2022-12-24T11:57:49;16.05;;;3.72;;
67528;SDS011;54366;51.980;5.856;2022-12-24T12:00:48;14.95;;;3.80;;
67528;SDS011;54366;51.980;5.856;2022-12-24T12:03:24;17.85;;;4.70;;
67528;SDS011;54366;51.980;5.856;2022-12-24T12:06:25;23.13;;;4.90;;
67528;SDS011;54366;51.980;5.856;2022-12-24T12:09:28;23.23;;;4.72;;
67528;SDS011;54366;51.980;5.856;2022-12-24T12:12:23;17.23;;;4.20;;
67528;SDS011;54366;51.980;5.856;2022-12-24T12:15:15;16.05;;;4.13;;
67528;SDS011;54366;51.980;5.856;2022-12-24T12:18:04;16.52;;;3.85;;
67528;SDS011;54366;51.980;5.856;2022-12-24T12:20:44;16.20;;;4.10;;
67528;SDS011;54366;51.980;5.856;2022-12-24T12:23:28;16.67;;;3.95;;
67528;SDS011;54366;51.980;5.856;2022-12-24T12:26:09;20.90;;;5.25;;
67528;SDS011;54366;51.980;5.856;2022-12-24T12:29:00;16.27;;;3.83;;
67528;SDS011;54366;51.980;5.856;2022-12-24T12:31:53;14.70;;;3.63;;
67528;SDS011;54366;51.980;5.856;2022-12-24T12:34:54;16.35;;;4.25;;
67528;SDS011;54366;51.980;5.856;2022-12-24T12:37:37;17.73;;;4.57;;
67528;SDS011;54366;51.980;5.856;2022-12-24T12:40:13;14.43;;;4.15;;
67528;SDS011;54366;51.980;5.856;2022-12-24T12:42:52;20.73;;;4.57;;
67528;SDS011;54366;51.980;5.856;2022-12-24T12:49:05;18.77;;;4.50;;
67528;SDS011;54366;51.980;5.856;2022-12-24T12:55:58;14.27;;;3.43;;
67528;SDS011;54366;51.980;5.856;2022-12-24T12:59:02;14.20;;;3.47;;
67528;SDS011;54366;51.980;5.856;2022-12-24T13:01:59;14.90;;;3.47;;
67528;SDS011;54366;51.980;5.856;2022-12-24T13:20:50;19.03;;;4.00;;
67528;SDS011;54366;51.980;5.856;2022-12-24T13:23:20;20.50;;;3.60;;
67528;SDS011;54366;51.980;5.856;2022-12-24T13:25:57;18.23;;;4.70;;
67528;SDS011;54366;51.980;5.856;2022-12-24T13:28:34;14.77;;;4.43;;
67528;SDS011;54366;51.980;5.856;2022-12-24T13:34:00;15.27;;;3.45;;
67528;SDS011;54366;51.980;5.856;2022-12-24T13:39:59;15.63;;;3.00;;
67528;SDS011;54366;51.980;5.856;2022-12-24T13:45:40;19.02;;;4.20;;
67528;SDS011;54366;51.980;5.856;2022-12-24T13:51:18;17.63;;;3.55;;
67528;SDS011;54366;51.980;5.856;2022-12-24T13:53:58;12.30;;;3.10;;
67528;SDS011;54366;51.980;5.856;2022-12-24T13:56:32;15.05;;;3.35;;
67528;SDS011;54366;51.980;5.856;2022-12-24T14:02:15;15.23;;;3.25;;
67528;SDS011;54366;51.980;5.856;2022-12-24T14:04:52;17.55;;;3.47;;
67528;SDS011;54366;51.980;5.856;2022-12-24T14:07:29;9.32;;;2.88;;
67528;SDS011;54366;51.980;5.856;2022-12-24T14:10:02;13.43;;;3.20;;
67528;SDS011;54366;51.980;5.856;2022-12-24T14:12:52;12.13;;;3.10;;
67528;SDS011;54366;51.980;5.856;2022-12-24T14:15:44;11.63;;;3.17;;
67528;SDS011;54366;51.980;5.856;2022-12-24T14:18:37;12.52;;;2.75;;
67528;SDS011;54366;51.980;5.856;2022-12-24T14:21:16;11.63;;;3.03;;
67528;SDS011;54366;51.980;5.856;2022-12-24T14:24:15;12.75;;;2.92;;
67528;SDS011;54366;51.980;5.856;2022-12-24T14:26:52;12.63;;;3.05;;
67528;SDS011;54366;51.980;5.856;2022-12-24T14:29:33;15.38;;;3.65;;
67528;SDS011;54366;51.980;5.856;2022-12-24T14:32:13;11.20;;;2.63;;
67528;SDS011;54366;51.980;5.856;2022-12-24T14:37:36;12.52;;;2.50;;
67528;SDS011;54366;51.980;5.856;2022-12-24T14:40:03;12.13;;;2.80;;
67528;SDS011;54366;51.980;5.856;2022-12-24T14:42:40;12.52;;;3.08;;
67528;SDS011;54366;51.980;5.856;2022-12-24T14:46:01;15.50;;;3.33;;
67528;SDS011;54366;51.980;5.856;2022-12-24T14:49:11;12.15;;;2.97;;
67528;SDS011;54366;51.980;5.856;2022-12-24T14:54:53;10.82;;;3.08;;
67528;SDS011;54366;51.980;5.856;2022-12-24T14:57:21;16.08;;;3.60;;
67528;SDS011;54366;51.980;5.856;2022-12-24T14:59:58;14.70;;;3.80;;
67528;SDS011;54366;51.980;5.856;2022-12-24T15:02:36;12.00;;;3.63;;
67528;SDS011;54366;51.980;5.856;2022-12-24T15:05:20;13.73;;;3.92;;
67528;SDS011;54366;51.980;5.856;2022-12-24T15:08:01;11.95;;;3.97;;
67528;SDS011;54366;51.980;5.856;2022-12-24T15:10:37;15.73;;;4.68;;
67528;SDS011;54366;51.980;5.856;2022-12-24T15:13:34;12.82;;;4.28;;
67528;SDS011;54366;51.980;5.856;2022-12-24T15:16:11;11.85;;;4.22;;
67528;SDS011;54366;51.980;5.856;2022-12-24T15:18:57;15.93;;;5.88;;
67528;SDS011;54366;51.980;5.856;2022-12-24T15:21:37;19.15;;;6.28;;
67528;SDS011;54366;51.980;5.856;2022-12-24T15:24:23;17.83;;;6.20;;
67528;SDS011;54366;51.980;5.856;2022-12-24T15:27:19;16.35;;;5.45;;
67528;SDS011;54366;51.980;5.856;2022-12-24T15:29:57;16.55;;;5.68;;
67528;SDS011;54366;51.980;5.856;2022-12-24T15:32:30;15.57;;;5.30;;
67528;SDS011;54366;51.980;5.856;2022-12-24T15:35:06;16.20;;;4.93;;
67528;SDS011;54366;51.980;5.856;2022-12-24T15:37:59;13.30;;;5.40;;
67528;SDS011;54366;51.980;5.856;2022-12-24T15:40:34;18.23;;;5.72;;
67528;SDS011;54366;51.980;5.856;2022-12-24T15:43:07;15.85;;;5.85;;
67528;SDS011;54366;51.980;5.856;2022-12-24T15:45:41;15.45;;;4.93;;
67528;SDS011;54366;51.980;5.856;2022-12-24T15:48:23;15.23;;;5.05;;
67528;SDS011;54366;51.980;5.856;2022-12-24T15:50:58;15.68;;;5.00;;
67528;SDS011;54366;51.980;5.856;2022-12-24T15:53:34;16.45;;;5.55;;
67528;SDS011;54366;51.980;5.856;2022-12-24T15:56:31;14.18;;;4.70;;
67528;SDS011;54366;51.980;5.856;2022-12-24T16:01:44;16.17;;;4.68;;
67528;SDS011;54366;51.980;5.856;2022-12-24T16:04:13;14.30;;;4.35;;
67528;SDS011;54366;51.980;5.856;2022-12-24T16:07:00;13.98;;;4.18;;
67528;SDS011;54366;51.980;5.856;2022-12-24T16:09:42;15.05;;;4.47;;
67528;SDS011;54366;51.980;5.856;2022-12-24T16:12:21;15.57;;;4.30;;
67528;SDS011;54366;51.980;5.856;2022-12-24T16:15:02;14.90;;;5.05;;
67528;SDS011;54366;51.980;5.856;2022-12-24T16:17:46;15.82;;;4.70;;
67528;SDS011;54366;51.980;5.856;2022-12-24T16:20:20;12.50;;;4.85;;
67528;SDS011;54366;51.980;5.856;2022-12-24T16:22:54;15.88;;;6.28;;
67528;SDS011;54366;51.980;5.856;2022-12-24T16:25:27;15.57;;;5.55;;
67528;SDS011;54366;51.980;5.856;2022-12-24T16:28:00;14.43;;;4.80;;
67528;SDS011;54366;51.980;5.856;2022-12-24T16:30:34;16.80;;;5.00;;
67528;SDS011;54366;51.980;5.856;2022-12-24T16:33:14;14.35;;;4.22;;
67528;SDS011;54366;51.980;5.856;2022-12-24T16:35:48;13.05;;;4.65;;
67528;SDS011;54366;51.980;5.856;2022-12-24T16:38:22;15.25;;;5.20;;
67528;SDS011;54366;51.980;5.856;2022-12-24T16:40:55;16.05;;;4.93;;
67528;SDS011;54366;51.980;5.856;2022-12-24T16:43:28;16.38;;;6.40;;
67528;SDS011;54366;51.980;5.856;2022-12-24T16:46:19;18.35;;;6.90;;
67528;SDS011;54366;51.980;5.856;2022-12-24T16:48:52;20.35;;;7.72;;
67528;SDS011;54366;51.980;5.856;2022-12-24T16:51:25;18.80;;;9.60;;
67528;SDS011;54366;51.980;5.856;2022-12-24T16:53:58;23.63;;;9.98;;